• Join FlightAware (Why Join?)
  • Login
  • US Flag 
10:04AM EDT


 

Airport Tracker/Info


-or-


 

Live Flight TrackerFlight Track Log ✈ SWA1718 ✈ 30-Apr-2013 ✈ KDEN - KMDW

Flight Track Log - Related Links

Times and Time Zones

All times are in EDT time to prevent confusion due to time zone crossing. See the SWA1718 flight status page for this flight to view local times or setup timezone preferences in your user account.

Time Position Orientation Groundspeed Altitude Reporting Facility
EDT Latitude Longitude Course Direction KTS MPH feet Rate Location/Type
06:48PM 39.8833 -104.6000 90° East 172 198 6,800  Level Denver TRACON
06:49PM 39.8833 -104.5333 90° East 224 258 8,700 1,800 Climbing Denver TRACON
06:50PM 39.8747 -104.4719 100° East 237 273 9,800 1,920 Climbing Denver Center
06:51PM 39.8739 -104.3631 91° East 302 348 12,100 2,340 Climbing Denver Center
06:52PM 39.8733 -104.2417 90° East 339 390 14,600 2,640 Climbing Denver Center
06:53PM 39.8728 -104.1036 90° East 354 407 17,600 2,640 Climbing Denver Center
06:54PM 39.8711 -103.9692 91° East 372 428 20,100 2,520 Climbing Denver Center
06:55PM 39.8758 -103.8175 88° East 386 444 22,800 1,980 Climbing Denver Center
06:56PM 39.8883 -103.6892 83° East 387 445 24,300 1,500 Climbing Denver Center
06:57PM 39.9100 -103.5036 81° East 439 505 25,900 1,500 Climbing Denver Center
06:58PM 39.9294 -103.3367 81° East 463 533 27,500 1,440 Climbing Denver Center
06:59PM 39.9486 -103.1656 82° East 471 542 28,900 1,260 Climbing Denver Center
07:00PM 39.9683 -102.9894 82° East 485 558 30,200 1,500 Climbing Denver Center
07:01PM 39.9872 -102.8106 82° East 493 567 32,000 1,740 Climbing Denver Center
07:02PM 40.0061 -102.6222 82° East 483 556 33,800 1,440 Climbing Denver Center
07:03PM 40.0239 -102.4561 82° East 484 557 35,000 1,320 Climbing Denver Center
07:04PM 40.0433 -102.2636 82° East 481 554 36,600 960 Climbing Denver Center
07:05PM 40.0600 -102.1011 82° East 475 547 37,000 180 Climbing Denver Center
07:06PM 40.0797 -101.9044 82° East 489 563 37,000  Level Denver Center
07:07PM 40.0969 -101.7375 82° East 486 559 37,000  Level Denver Center
07:08PM 40.1058 -101.5686 86° East 489 563 37,000  Level Denver Center
07:09PM 40.1133 -101.3733 87° East 487 560 37,000  Level Denver Center
07:10PM 40.1194 -101.2069 87° East 482 555 37,000  Level Denver Center
07:11PM 40.1269 -101.0111 87° East 485 558 37,000  Level Denver Center
07:12PM 40.1339 -100.8428 87° East 486 559 37,000  Level Denver Center
07:14PM 40.1408 -100.6467 87° East 487 560 37,000  Level Denver Center
07:15PM 40.1481 -100.4247 87° East 482 555 37,000  Level Denver Center
07:16PM 40.1531 -100.2569 88° East 484 557 37,000  Level Denver Center
07:17PM 40.1586 -100.0631 88° East 480 552 37,000  Level Denver Center
07:18PM 40.1639 -99.8850 88° East 477 549 37,000  Level Denver Center
07:19PM 40.1681 -99.7147 88° East 472 543 37,000 -420 Level Denver Center
07:20PM 40.1717 -99.5783 88° East 471 542 36,200 -1,020 Descending Denver Center
07:21PM 40.1769 -99.3717 88° East 475 547 35,000 -600 Descending Denver Center
07:22PM 40.1803 -99.1986 89° East 476 548 35,000  Level Denver Center
07:23PM 40.1844 -99.0267 88° East 476 548 35,000  Level Denver Center
07:24PM 40.1869 -98.8881 89° East 478 550 35,000  Level Denver Center
07:24PM 40.1892 -98.7869 88° East 475 547 35,000  Level Minneapolis Center
07:25PM 40.1925 -98.5789 89° East 478 550 35,000  Level Minneapolis Center
07:26PM 40.1956 -98.4097 89° East 472 543 35,000  Level Minneapolis Center
07:27PM 40.1969 -98.2406 89° East 469 540 35,000  Level Minneapolis Center
07:28PM 40.1994 -98.0722 89° East 466 536 35,000  Level Minneapolis Center
07:29PM 40.2011 -97.9042 89° East 465 535 35,000  Level Minneapolis Center
07:31PM 40.2025 -97.7358 89° East 463 533 35,000  Level Minneapolis Center
07:32PM 40.2042 -97.5689 89° East 461 531 35,000  Level Minneapolis Center
07:33PM 40.2056 -97.3689 89° East 460 529 35,000  Level Minneapolis Center
07:34PM 40.2061 -97.2267 90° East 457 526 35,000  Level Minneapolis Center
07:35PM 40.2061 -97.0597 90° East 458 527 35,000  Level Minneapolis Center
07:36PM 40.2067 -96.8617 90° East 457 526 35,000  Level Minneapolis Center
07:37PM 40.2075 -96.6969 90° East 456 525 35,000  Level Minneapolis Center
07:38PM 40.2075 -96.5308 90° East 457 526 35,000  Level Minneapolis Center
07:39PM 40.2061 -96.3664 91° East 455 524 35,000  Level Minneapolis Center
07:40PM 40.2058 -96.2031 90° East 454 522 35,000  Level Minneapolis Center
07:41PM 40.2061 -96.0075 90° East 452 520 35,000  Level Minneapolis Center
07:42PM 40.2044 -95.8428 91° East 454 522 35,000  Level Minneapolis Center
07:43PM 40.2031 -95.6503 90° East 450 518 35,000  Level Minneapolis Center
07:44PM 40.2008 -95.4878 91° East 448 516 35,000  Level Minneapolis Center
07:45PM 40.1989 -95.3264 91° East 447 514 35,000  Level Minneapolis Center
07:46PM 40.2081 -95.1667 86° East 445 512 35,000  Level Minneapolis Center
07:47PM 40.2267 -95.0047 81° East 447 514 35,000  Level Minneapolis Center
07:48PM 40.2453 -94.8428 81° East 450 518 35,000  Level Minneapolis Center
07:49PM 40.2625 -94.6822 82° East 448 516 35,000  Level Minneapolis Center
07:50PM 40.2817 -94.4958 82° East 446 513 35,000  Level Minneapolis Center
07:51PM 40.2994 -94.3361 82° East 446 513 35,000  Level Minneapolis Center
07:53PM 40.3183 -94.1453 83° East 445 512 35,000  Level Minneapolis Center
07:54PM 40.3358 -93.9847 82° East 447 514 35,000  Level Minneapolis Center
07:55PM 40.3514 -93.8247 83° East 447 514 35,000  Level Minneapolis Center
07:56PM 40.3692 -93.6325 83° East 447 514 35,000  Level Minneapolis Center
07:57PM 40.3864 -93.4711 82° East 449 517 35,000 -420 Level Minneapolis Center
07:58PM 40.4025 -93.2778 84° East 448 516 34,100 -1,800 Descending Kansas City Center
07:59PM 40.4183 -93.1158 83° East 450 518 31,100 -1,500 Descending Kansas City Center
08:00PM 40.4339 -92.9611 82° East 442 509 31,000 -60 Descending Kansas City Center
08:01PM 40.4500 -92.7844 83° East 437 503 31,000  Level Kansas City Center
08:02PM 40.4647 -92.6108 84° East 444 511 31,000  Level Kansas City Center
08:03PM 40.4789 -92.4511 83° East 443 510 31,000  Level Kansas City Center
08:04PM 40.4942 -92.2806 83° East 444 511 31,000  Level Kansas City Center
08:05PM 40.5072 -92.1206 84° East 443 510 31,000  Level Kansas City Center
08:06PM 40.5208 -91.9592 84° East 445 512 31,000  Level Kansas City Center
08:07PM 40.5331 -91.7981 84° East 445 512 31,000  Level Kansas City Center
08:08PM 40.5467 -91.6378 84° East 445 512 31,000  Level Kansas City Center
08:08PM 40.5528 -91.5736 83° East 444 511 31,000  Level Chicago Center
08:09PM 40.5650 -91.4133 84° East 445 512 31,000  Level Chicago Center
08:10PM 40.6019 -91.2631 72° East 445 512 31,000  Level Chicago Center
08:12PM 40.6519 -91.1131 66° East 448 516 31,000 -300 Level Chicago Center
08:13PM 40.7122 -90.9344 66° East 445 512 30,400 -780 Descending Chicago Center
08:14PM 40.7619 -90.7833 66° East 447 514 29,400 -960 Descending Chicago Center
08:15PM 40.8117 -90.6358 66° East 447 514 28,500 -960 Descending Chicago Center
08:16PM 40.8622 -90.4836 66° East 442 509 27,500 -960 Descending Chicago Center
08:17PM 40.9125 -90.3314 66° East 446 513 26,600 -1,020 Descending Chicago Center
08:18PM 40.9672 -90.1614 67° East 446 513 25,500 -1,020 Descending Chicago Center
08:19PM 41.0117 -90.0275 66° East 446 513 24,600 -960 Descending Chicago Center
08:20PM 41.0608 -89.8742 67° East 447 514 23,600 -1,440 Descending Chicago Center
08:21PM 41.1183 -89.6942 67° East 439 505 21,700 -2,280 Descending Chicago Center
08:22PM 41.1636 -89.5519 67° East 420 483 19,000 -2,700 Descending Chicago Center
08:23PM 41.2072 -89.4147 67° East 404 465 16,200 -2,700 Descending Chicago Center
08:24PM 41.2492 -89.2808 67° East 396 456 13,500 -2,100 Descending Chicago Center
08:25PM 41.2886 -89.1531 68° East 366 421 11,900 -1,740 Descending Chicago Center
08:26PM 41.3242 -89.0358 68° East 346 398 10,000 -1,020 Descending Chicago Center
08:27PM 41.3619 -88.9167 67° East 352 405 9,900 -60 Descending Chicago Center
08:28PM 41.4022 -88.7878 67° East 319 367 9,900 -780 Level Chicago Center
08:29PM 41.4344 -88.6794 68° East 316 364 8,400 -1,560 Descending Chicago Center
08:30PM 41.4672 -88.5744 67° East 312 359 6,700 -1,200 Descending Chicago Center
08:31PM 41.4994 -88.4714 67° East 307 353 6,000 -720 Descending Chicago Center
08:32PM 41.5303 -88.3711 68° East 300 345 5,300 -540 Descending Chicago Center
08:33PM 41.5542 -88.2694 73° East 301 346 4,900 -180 Descending Chicago Center
08:34PM 41.5653 -88.1667 82° East 285 328 5,000  Climbing Chicago Center
08:35PM 41.5711 -88.0411 86° East 281 323 4,900  Descending Chicago Center
08:36PM 41.5672 -87.9383 93° East 278 320 5,000 -180 Climbing Chicago Center
08:37PM 41.5653 -87.8344 91° East 277 319 4,600 -960 Descending Chicago Center
08:38PM 41.5756 -87.7344 82° East 286 329 3,100 -1,080 Descending Chicago Center
08:39PM 41.6333 -87.6500 48° Northeast 257 296 2,500 -300 Descending Chicago TRACON
08:40PM 41.7000 -87.6167 20° North 264 304 2,500 -180 Level Chicago TRACON
08:41PM 41.7333 -87.6833 304° West 200 230 2,200 -300 Descending Chicago TRACON
08:42PM 41.7833 -87.6833 360° North 195 224 1,900 -540 Descending Chicago TRACON
08:43PM 41.8000 -87.7167 304° West 150 173 1,200 -660 Descending Chicago TRACON